createdAt,value
2023-07-11T00:01:37.664Z,22.34
2023-07-11T00:04:06.426Z,22.31
2023-07-11T00:06:34.921Z,22.27
2023-07-11T00:09:04.783Z,22.16
2023-07-11T00:11:33.165Z,22.09
2023-07-11T00:14:01.751Z,22.12
2023-07-11T00:16:30.284Z,22.18
2023-07-11T00:18:58.629Z,22.31
2023-07-11T00:21:26.975Z,22.27
2023-07-11T00:24:04.742Z,21.65
2023-07-11T00:26:36.329Z,22.24
2023-07-11T00:29:17.125Z,21.56
2023-07-11T00:31:45.461Z,22.04
2023-07-11T00:34:13.936Z,22.06
2023-07-11T00:36:42.233Z,22.14
2023-07-11T00:39:13.652Z,22.08
2023-07-11T00:41:43.706Z,22.03
2023-07-11T00:44:15.703Z,21.99
2023-07-11T00:46:45.456Z,21.73
2023-07-11T00:49:18.750Z,21.94
2023-07-11T00:51:53.543Z,21.74
2023-07-11T00:54:32.945Z,21.56
2023-07-11T00:57:06.737Z,21.43
2023-07-11T00:59:35.597Z,21.50
2023-07-11T01:02:09.182Z,21.69
2023-07-11T01:04:39.422Z,21.72
2023-07-11T01:07:11.730Z,21.56
2023-07-11T01:09:40.121Z,21.39
2023-07-11T01:12:14.064Z,21.33
2023-07-11T01:14:44.339Z,21.10
2023-07-11T01:17:31.769Z,21.28
2023-07-11T01:20:03.099Z,21.29
2023-07-11T01:22:34.927Z,21.36
2023-07-11T01:25:08.412Z,21.43
2023-07-11T01:27:37.113Z,21.39
2023-07-11T01:30:08.804Z,21.36
2023-07-11T01:32:38.993Z,21.38
2023-07-11T01:35:08.323Z,21.36
2023-07-11T01:37:38.749Z,21.08
2023-07-11T01:40:10.469Z,21.09
2023-07-11T01:42:39.751Z,21.00
2023-07-11T01:45:11.449Z,20.92
2023-07-11T01:47:40.478Z,21.04
2023-07-11T01:50:10.129Z,21.18
2023-07-11T01:52:39.908Z,21.19
2023-07-11T01:55:11.451Z,21.12
2023-07-11T01:57:39.869Z,21.20
2023-07-11T02:00:11.050Z,21.21
2023-07-11T02:02:39.201Z,21.24
2023-07-11T02:05:08.882Z,21.28
2023-07-11T02:07:39.399Z,21.37
2023-07-11T02:10:09.805Z,21.32
2023-07-11T02:12:38.192Z,21.35
2023-07-11T02:15:07.631Z,21.14
2023-07-11T02:17:37.033Z,21.22
2023-07-11T02:20:07.351Z,21.25
2023-07-11T02:22:35.680Z,21.14
2023-07-11T02:25:06.077Z,20.83
2023-07-11T02:27:34.458Z,20.75
2023-07-11T02:30:02.797Z,20.46
2023-07-11T02:32:31.185Z,20.36
2023-07-11T02:35:00.052Z,20.27
2023-07-11T02:37:28.382Z,20.22
2023-07-11T02:39:56.714Z,20.27
2023-07-11T02:42:26.467Z,20.23
2023-07-11T02:44:54.780Z,20.17
2023-07-11T02:47:23.172Z,20.22
2023-07-11T02:49:51.485Z,20.25
2023-07-11T02:52:19.793Z,20.21
2023-07-11T02:54:48.112Z,20.30
2023-07-11T02:57:16.549Z,20.36
2023-07-11T02:59:47.550Z,20.38
2023-07-11T03:02:15.875Z,20.31
2023-07-11T03:04:44.162Z,20.33
2023-07-11T03:07:12.499Z,20.29
2023-07-11T03:09:40.854Z,20.36
2023-07-11T03:12:10.591Z,20.30
2023-07-11T03:14:39.270Z,20.31
2023-07-11T03:17:09.011Z,20.37
2023-07-11T03:19:38.541Z,20.28
2023-07-11T03:22:06.968Z,20.29
2023-07-11T03:24:35.405Z,20.22
2023-07-11T03:27:03.781Z,20.13
2023-07-11T03:29:32.061Z,20.12
2023-07-11T03:32:00.390Z,20.14
2023-07-11T03:34:30.151Z,20.15
2023-07-11T03:36:58.544Z,20.20
2023-07-11T03:39:26.826Z,20.11
2023-07-11T03:41:55.216Z,20.05
2023-07-11T03:44:23.533Z,20.06
2023-07-11T03:46:51.896Z,20.20
2023-07-11T03:49:20.227Z,20.21
2023-07-11T03:51:49.924Z,20.29
2023-07-11T03:54:18.592Z,20.38
2023-07-11T03:56:46.954Z,20.40
2023-07-11T03:59:15.264Z,20.59
2023-07-11T04:01:43.549Z,20.79
2023-07-11T04:04:12.040Z,20.77
2023-07-11T04:06:40.466Z,20.74
2023-07-11T04:09:10.227Z,20.73
2023-07-11T04:11:38.557Z,20.61
2023-07-11T04:14:12.366Z,20.01
2023-07-11T04:16:40.858Z,20.69
2023-07-11T04:19:09.150Z,20.72
2023-07-11T04:21:37.669Z,20.75
2023-07-11T04:24:06.905Z,20.73
2023-07-11T04:26:36.575Z,20.63
2023-07-11T04:29:04.920Z,20.59
2023-07-11T04:31:33.303Z,20.58
2023-07-11T04:34:01.757Z,20.69
2023-07-11T04:36:30.133Z,20.85
2023-07-11T04:38:58.550Z,20.73
2023-07-11T04:41:26.902Z,20.53
2023-07-11T04:43:56.619Z,20.46
2023-07-11T04:46:25.186Z,20.50
2023-07-11T04:48:53.658Z,20.49
2023-07-11T04:51:22.063Z,20.47
2023-07-11T04:53:50.390Z,20.43
2023-07-11T04:56:18.732Z,20.37
2023-07-11T04:58:47.094Z,20.48
2023-07-11T05:01:22.256Z,20.59
2023-07-11T05:03:51.575Z,20.54
2023-07-11T05:06:19.897Z,20.71
2023-07-11T05:08:48.239Z,20.65
2023-07-11T05:11:18.718Z,20.60
2023-07-11T05:13:49.667Z,20.55
2023-07-11T05:16:22.603Z,20.59
2023-07-11T05:18:51.826Z,20.58
2023-07-11T05:21:21.807Z,20.49
2023-07-11T05:23:50.763Z,20.73
2023-07-11T05:26:20.823Z,20.51
2023-07-11T05:28:49.683Z,20.73
2023-07-11T05:31:20.543Z,20.80
2023-07-11T05:33:49.102Z,20.87
2023-07-11T05:36:27.151Z,21.07
2023-07-11T05:38:56.759Z,21.15
2023-07-11T05:41:25.433Z,21.47
2023-07-11T05:43:53.777Z,21.64
2023-07-11T05:46:24.210Z,21.82
2023-07-11T05:48:53.289Z,21.87
2023-07-11T05:51:22.675Z,21.33
2023-07-11T05:53:51.030Z,22.11
2023-07-11T05:56:20.831Z,22.29
2023-07-11T05:58:51.646Z,22.30
2023-07-11T06:01:24.458Z,22.45
2023-07-11T06:04:05.586Z,22.41
2023-07-11T06:06:43.111Z,22.53
2023-07-11T06:09:15.149Z,22.48
2023-07-11T06:11:44.438Z,22.83
2023-07-11T06:14:13.235Z,22.97
2023-07-11T06:16:44.795Z,23.21
2023-07-11T06:19:14.218Z,23.39
2023-07-11T06:21:43.206Z,23.47
2023-07-11T06:24:11.522Z,23.66
2023-07-11T06:26:40.000Z,23.77
2023-07-11T06:29:08.305Z,23.91
2023-07-11T06:31:36.796Z,23.98
2023-07-11T06:34:06.570Z,24.13
2023-07-11T06:36:34.917Z,24.27
2023-07-11T06:39:03.265Z,24.46
2023-07-11T06:41:31.703Z,24.57
2023-07-11T06:43:59.992Z,24.67
2023-07-11T06:46:28.455Z,24.72
2023-07-11T06:48:59.256Z,24.89
2023-07-11T06:51:29.847Z,24.96
2023-07-11T06:53:58.565Z,25.07
2023-07-11T06:56:27.791Z,25.15
2023-07-11T06:58:56.397Z,25.26
2023-07-11T07:01:35.535Z,25.32
2023-07-11T07:04:06.995Z,25.39
2023-07-11T07:06:37.257Z,25.58
2023-07-11T07:09:06.308Z,25.53
2023-07-11T07:11:36.621Z,25.56
2023-07-11T07:14:07.757Z,25.65
2023-07-11T07:16:37.179Z,25.75
2023-07-11T07:19:06.233Z,25.79
2023-07-11T07:21:36.308Z,25.86
2023-07-11T07:24:05.013Z,25.88
2023-07-11T07:26:33.879Z,25.94
2023-07-11T07:29:02.681Z,25.98
2023-07-11T07:31:32.054Z,25.96
2023-07-11T07:34:00.568Z,26.01
2023-07-11T07:36:28.924Z,26.01
2023-07-11T07:38:58.604Z,26.02
2023-07-11T07:41:28.210Z,26.17
2023-07-11T07:43:56.542Z,26.32
2023-07-11T07:46:25.064Z,26.48
2023-07-11T07:48:53.637Z,26.45
2023-07-11T07:51:22.952Z,26.42
2023-07-11T07:53:51.328Z,26.51
2023-07-11T07:56:24.488Z,26.64
2023-07-11T07:58:53.042Z,26.64
2023-07-11T08:01:22.976Z,26.57
2023-07-11T08:03:51.896Z,26.47
2023-07-11T08:06:21.577Z,26.48
2023-07-11T08:08:51.524Z,26.49
2023-07-11T08:11:23.181Z,26.55
2023-07-11T08:16:31.558Z,26.52
2023-07-11T08:19:05.856Z,26.55
2023-07-11T08:21:36.389Z,26.66
2023-07-11T08:24:06.379Z,26.71
2023-07-11T08:26:36.331Z,26.86
2023-07-11T08:29:13.229Z,26.99
2023-07-11T08:31:53.639Z,27.09
2023-07-11T08:34:22.014Z,27.15
2023-07-11T08:36:50.373Z,27.22
2023-07-11T08:39:18.805Z,27.28
2023-07-11T08:41:51.796Z,27.30
2023-07-11T08:44:31.383Z,27.32
2023-07-11T08:47:05.767Z,27.26
2023-07-11T08:49:48.588Z,27.27
2023-07-11T08:52:19.910Z,27.37
2023-07-11T08:54:55.186Z,27.34
2023-07-11T08:57:30.502Z,27.45
2023-07-11T09:00:08.554Z,27.61
2023-07-11T09:02:47.401Z,27.47
2023-07-11T09:05:21.298Z,27.51
2023-07-11T09:07:53.630Z,27.51
2023-07-11T09:10:48.685Z,27.49
2023-07-11T09:14:00.807Z,27.57
2023-07-11T09:16:42.932Z,27.62
2023-07-11T09:19:28.399Z,27.72
2023-07-11T09:22:09.346Z,27.89
2023-07-11T09:24:47.564Z,27.98
2023-07-11T09:27:23.677Z,28.05
2023-07-11T09:29:54.831Z,27.95
2023-07-11T09:32:32.414Z,27.91
2023-07-11T09:35:17.548Z,28.01
2023-07-11T09:37:52.283Z,27.97
2023-07-11T09:40:32.196Z,28.00
2023-07-11T09:43:02.110Z,28.08
2023-07-11T09:45:35.175Z,28.18
2023-07-11T09:48:13.041Z,28.25
2023-07-11T09:51:10.761Z,28.29
2023-07-11T09:53:44.424Z,28.36
2023-07-11T09:56:15.444Z,28.09
2023-07-11T09:58:49.605Z,28.30
2023-07-11T10:01:25.733Z,28.44
2023-07-11T10:03:58.861Z,28.31
2023-07-11T10:09:18.964Z,28.35
2023-07-11T10:11:58.140Z,28.36
2023-07-11T10:14:32.575Z,28.52
2023-07-11T10:17:14.038Z,28.60
2023-07-11T10:19:42.488Z,28.53
2023-07-11T10:22:19.429Z,28.67
2023-07-11T10:24:48.361Z,28.81
2023-07-11T10:27:32.252Z,28.85
2023-07-11T10:30:02.473Z,28.83
2023-07-11T10:32:40.149Z,28.87
2023-07-11T10:35:15.706Z,28.94
2023-07-11T10:37:47.033Z,28.84
2023-07-11T10:40:23.450Z,28.90
2023-07-11T10:43:04.338Z,29.01
2023-07-11T10:45:38.996Z,28.97
2023-07-11T10:48:25.789Z,28.96
2023-07-11T10:50:59.424Z,28.95
2023-07-11T10:53:33.734Z,29.08
2023-07-11T10:56:07.323Z,29.10
2023-07-11T10:58:36.502Z,29.03
2023-07-11T11:01:16.031Z,29.08
2023-07-11T11:03:48.599Z,29.14
2023-07-11T11:06:41.586Z,29.11
2023-07-11T11:09:17.319Z,29.07
2023-07-11T11:11:57.908Z,29.13
2023-07-11T11:14:34.413Z,29.17
2023-07-11T11:17:18.744Z,29.27
2023-07-11T11:20:08.730Z,29.34
2023-07-11T11:22:47.964Z,29.25
2023-07-11T11:25:27.795Z,29.31
2023-07-11T11:28:12.669Z,29.51
2023-07-11T11:30:53.058Z,29.59
2023-07-11T11:33:33.838Z,29.69
2023-07-11T11:36:10.468Z,29.75
2023-07-11T11:38:58.933Z,29.73
2023-07-11T11:41:37.834Z,29.83
2023-07-11T11:49:41.393Z,29.83
2023-07-11T11:52:13.358Z,29.72
2023-07-11T11:54:45.253Z,29.57
2023-07-11T11:57:22.649Z,29.54
2023-07-11T11:59:52.016Z,29.29
2023-07-11T12:02:31.777Z,29.48
2023-07-11T12:05:03.793Z,29.45
2023-07-11T12:07:43.155Z,29.48
2023-07-11T12:10:25.815Z,29.31
2023-07-11T12:13:21.433Z,29.46
2023-07-11T12:15:55.926Z,29.42
2023-07-11T12:18:43.349Z,29.26
2023-07-11T12:21:43.153Z,29.32
2023-07-11T12:24:47.611Z,29.36
2023-07-11T12:28:02.331Z,29.42
2023-07-11T12:30:44.650Z,29.42
2023-07-11T12:33:35.546Z,29.39
2023-07-11T12:36:41.102Z,29.30
2023-07-11T12:39:24.276Z,29.29
2023-07-11T12:42:09.324Z,29.18
2023-07-11T12:44:40.326Z,29.18
2023-07-11T12:47:18.198Z,29.11
2023-07-11T12:49:49.457Z,29.13
2023-07-11T12:52:20.693Z,28.95
2023-07-11T12:54:50.841Z,28.93
2023-07-11T12:57:24.429Z,29.15
2023-07-11T12:59:53.058Z,29.20
2023-07-11T13:02:27.245Z,29.23
2023-07-11T13:05:00.320Z,29.25
2023-07-11T13:07:33.617Z,29.29
2023-07-11T13:10:04.749Z,29.27
2023-07-11T13:12:38.785Z,29.05
2023-07-11T13:15:15.139Z,28.94
2023-07-11T13:17:45.001Z,28.88
2023-07-11T13:20:21.813Z,28.93
2023-07-11T13:22:50.804Z,28.92
2023-07-11T13:25:28.185Z,28.96
2023-07-11T13:27:58.021Z,28.97
2023-07-11T13:30:35.874Z,28.99
2023-07-11T13:35:53.686Z,29.06
2023-07-11T13:38:22.201Z,29.09
2023-07-11T13:40:56.538Z,29.22
2023-07-11T13:43:26.629Z,29.30
2023-07-11T13:45:55.297Z,29.27
2023-07-11T13:48:29.539Z,29.33
2023-07-11T13:51:20.616Z,29.21
2023-07-11T13:53:52.514Z,29.24
2023-07-11T13:56:21.006Z,29.12
2023-07-11T13:58:53.522Z,29.12
2023-07-11T14:01:26.774Z,28.50
2023-07-11T14:03:56.871Z,29.05
2023-07-11T14:06:25.463Z,29.06
2023-07-11T14:08:53.781Z,29.06
2023-07-11T14:11:28.159Z,29.03
2023-07-11T14:13:58.958Z,28.89
2023-07-11T14:16:27.669Z,28.64
2023-07-11T14:18:56.794Z,28.50
2023-07-11T14:21:25.205Z,28.46
2023-07-11T14:23:53.564Z,28.48
2023-07-11T14:26:21.950Z,28.49
2023-07-11T14:28:50.760Z,28.53
2023-07-11T14:31:23.233Z,28.52
2023-07-11T14:33:51.634Z,28.49
2023-07-11T14:36:20.092Z,28.54
2023-07-11T14:38:48.414Z,28.34
2023-07-11T14:41:16.811Z,28.30
2023-07-11T14:43:45.140Z,28.34
2023-07-11T14:46:13.841Z,28.32
2023-07-11T14:48:43.728Z,28.26
2023-07-11T14:51:13.068Z,28.34
2023-07-11T14:53:43.354Z,28.26
2023-07-11T14:58:51.446Z,28.39
2023-07-11T15:01:19.887Z,28.51
2023-07-11T15:16:30.188Z,28.48
2023-07-11T15:19:00.000Z,28.35
2023-07-11T15:21:28.315Z,28.13
2023-07-11T15:23:56.682Z,28.02
2023-07-11T15:26:25.973Z,27.87
2023-07-11T15:28:55.111Z,27.85
2023-07-11T15:31:23.789Z,27.86
2023-07-11T15:33:52.498Z,27.84
2023-07-11T15:36:22.216Z,27.87
2023-07-11T15:38:50.816Z,27.82
2023-07-11T15:41:20.095Z,27.80
2023-07-11T15:43:48.586Z,27.84
2023-07-11T15:46:22.950Z,27.92
2023-07-11T15:48:54.251Z,27.85
2023-07-11T15:51:24.288Z,27.87
2023-07-11T15:53:53.293Z,27.87
2023-07-11T15:56:21.622Z,27.87
2023-07-11T15:58:50.285Z,27.64
2023-07-11T16:01:18.628Z,27.67
2023-07-11T16:03:47.143Z,27.81
2023-07-11T16:06:18.840Z,27.83
2023-07-11T16:08:48.573Z,27.87
2023-07-11T16:11:18.524Z,27.96
2023-07-11T16:13:47.272Z,27.93
2023-07-11T16:16:18.725Z,27.84
2023-07-11T16:18:47.381Z,27.82
2023-07-11T16:21:16.976Z,27.69
2023-07-11T16:23:45.376Z,27.69
2023-07-11T16:26:21.145Z,27.71
2023-07-11T16:28:51.252Z,27.59
2023-07-11T16:31:19.978Z,27.62
2023-07-11T16:33:48.479Z,27.52
2023-07-11T16:36:18.524Z,27.51
2023-07-11T16:38:46.970Z,27.54
2023-07-11T16:41:15.331Z,27.46
2023-07-11T16:43:45.091Z,27.51
2023-07-11T16:46:19.457Z,27.44
2023-07-11T16:48:47.921Z,27.39
2023-07-11T16:51:23.757Z,27.41
2023-07-11T16:53:52.161Z,27.37
2023-07-11T16:56:20.555Z,27.32
2023-07-11T16:58:50.275Z,27.37
2023-07-11T17:01:21.837Z,27.26
2023-07-11T17:03:50.554Z,27.28
2023-07-11T17:06:27.165Z,27.18
2023-07-11T17:08:56.938Z,27.18
2023-07-11T17:11:25.904Z,27.34
2023-07-11T17:13:56.124Z,27.19
2023-07-11T17:16:28.099Z,27.13
2023-07-11T17:19:02.395Z,27.10
2023-07-11T17:21:30.757Z,27.08
2023-07-11T17:23:59.444Z,27.04
2023-07-11T17:26:27.756Z,26.99
2023-07-11T17:28:57.427Z,26.93
2023-07-11T17:31:25.884Z,26.83
2023-07-11T17:33:54.373Z,26.83
2023-07-11T17:36:22.723Z,26.79
2023-07-11T17:38:51.139Z,26.72
2023-07-11T17:44:03.079Z,26.57
2023-07-11T17:49:07.267Z,25.98
2023-07-11T17:51:36.220Z,26.20
2023-07-11T17:54:04.859Z,26.27
2023-07-11T17:56:52.246Z,26.23
2023-07-11T17:59:21.523Z,26.24
2023-07-11T18:01:51.326Z,26.18
2023-07-11T18:04:19.911Z,26.21
2023-07-11T18:06:48.440Z,26.16
2023-07-11T18:09:16.901Z,26.27
2023-07-11T18:11:45.427Z,26.20
2023-07-11T18:14:13.760Z,26.17
2023-07-11T18:16:42.325Z,26.02
2023-07-11T18:19:12.973Z,26.21
2023-07-11T18:21:41.094Z,26.14
2023-07-11T18:24:09.482Z,26.17
2023-07-11T18:26:37.824Z,26.22
2023-07-11T18:29:06.155Z,26.19
2023-07-11T18:31:34.613Z,26.16
2023-07-11T18:34:02.992Z,26.11
2023-07-11T18:36:34.429Z,26.00
2023-07-11T18:39:03.226Z,26.09
2023-07-11T18:41:31.622Z,26.07
2023-07-11T18:44:00.025Z,26.01
2023-07-11T18:46:28.402Z,25.97
2023-07-11T18:48:56.709Z,25.97
2023-07-11T18:51:29.047Z,25.88
2023-07-11T18:53:58.724Z,25.81
2023-07-11T18:56:28.748Z,25.81
2023-07-11T18:58:57.132Z,25.84
2023-07-11T19:01:25.626Z,25.79
2023-07-11T19:03:53.978Z,25.73
2023-07-11T19:06:22.299Z,25.64
2023-07-11T19:08:50.582Z,25.59
2023-07-11T19:11:20.268Z,25.55
2023-07-11T19:13:48.602Z,25.51
2023-07-11T19:16:22.674Z,25.43
2023-07-11T19:18:51.512Z,25.39
2023-07-11T19:21:20.005Z,25.41
2023-07-11T19:23:48.351Z,25.39
2023-07-11T19:26:20.076Z,24.72
2023-07-11T19:28:48.510Z,25.30
2023-07-11T19:31:17.921Z,25.31
2023-07-11T19:33:46.426Z,25.25
2023-07-11T19:36:21.989Z,25.30
2023-07-11T19:38:50.362Z,25.15
2023-07-11T19:41:20.606Z,25.22
2023-07-11T19:43:49.551Z,25.18
2023-07-11T19:46:22.294Z,25.17
2023-07-11T19:48:51.802Z,25.14
2023-07-11T19:51:20.175Z,25.15
2023-07-11T19:53:48.496Z,25.12
2023-07-11T19:56:23.806Z,25.02
2023-07-11T19:58:53.001Z,25.00
2023-07-11T20:01:21.526Z,24.96
2023-07-11T20:03:52.324Z,24.94
2023-07-11T20:06:24.113Z,24.92
2023-07-11T20:08:54.090Z,24.94
2023-07-11T20:11:23.871Z,24.92
2023-07-11T20:13:52.172Z,24.89
2023-07-11T20:16:23.061Z,24.17
2023-07-11T20:18:52.164Z,24.89
2023-07-11T20:21:24.171Z,24.84
2023-07-11T20:23:53.708Z,24.85
2023-07-11T20:26:26.627Z,24.82
2023-07-11T20:28:57.947Z,24.78
2023-07-11T20:31:26.961Z,24.75
2023-07-11T20:33:55.414Z,24.71
2023-07-11T20:36:26.931Z,24.65
2023-07-11T20:38:59.224Z,24.39
2023-07-11T20:41:28.993Z,24.39
2023-07-11T20:44:00.558Z,24.31
2023-07-11T20:46:29.520Z,24.27
2023-07-11T20:49:00.858Z,24.22
2023-07-11T20:51:29.764Z,24.11
2023-07-11T20:53:58.148Z,24.17
2023-07-11T20:56:28.212Z,24.22
2023-07-11T20:58:56.558Z,24.16
2023-07-11T21:01:25.982Z,24.17
2023-07-11T21:03:54.472Z,24.14
2023-07-11T21:06:35.134Z,24.09
2023-07-11T21:09:05.778Z,24.04
2023-07-11T21:11:35.505Z,23.98
2023-07-11T21:14:03.967Z,23.96
2023-07-11T21:16:35.279Z,23.87
2023-07-11T21:19:05.386Z,23.81
2023-07-11T21:21:35.641Z,23.78
2023-07-11T21:24:03.972Z,23.69
2023-07-11T21:26:33.055Z,23.65
2023-07-11T21:29:04.594Z,23.52
2023-07-11T21:31:33.563Z,23.51
2023-07-11T21:34:02.422Z,23.39
2023-07-11T21:36:31.441Z,23.29
2023-07-11T21:39:00.810Z,23.24
2023-07-11T21:41:29.164Z,23.25
2023-07-11T21:43:57.516Z,23.18
2023-07-11T21:46:31.019Z,23.21
2023-07-11T21:49:00.197Z,23.19
2023-07-11T21:51:32.048Z,23.13
2023-07-11T21:54:00.972Z,23.08
2023-07-11T21:56:30.715Z,23.01
2023-07-11T21:59:02.306Z,23.00
2023-07-11T22:01:32.733Z,22.98
2023-07-11T22:04:02.197Z,22.97
2023-07-11T22:06:32.003Z,22.96
2023-07-11T22:09:00.543Z,22.95
2023-07-11T22:11:29.047Z,23.00
2023-07-11T22:13:57.725Z,23.02
2023-07-11T22:16:28.358Z,23.03
2023-07-11T22:18:58.352Z,23.00
2023-07-11T22:21:28.266Z,22.99
2023-07-11T22:23:58.444Z,22.95
2023-07-11T22:26:32.068Z,22.19
2023-07-11T22:29:02.674Z,22.97
2023-07-11T22:31:31.784Z,22.98
2023-07-11T22:34:01.660Z,22.96
2023-07-11T22:36:30.097Z,23.00
2023-07-11T22:38:58.453Z,22.98
2023-07-11T22:41:26.867Z,22.98
2023-07-11T22:43:55.298Z,22.96
2023-07-11T22:46:23.851Z,22.96
2023-07-11T22:48:53.712Z,23.00
2023-07-11T22:51:23.481Z,23.02
2023-07-11T22:53:51.785Z,23.04
2023-07-11T22:56:22.105Z,23.04
2023-07-11T22:58:51.484Z,23.03
2023-07-11T23:01:22.314Z,23.05
2023-07-11T23:03:51.205Z,23.04
2023-07-11T23:06:24.991Z,23.02
2023-07-11T23:08:54.385Z,22.99
2023-07-11T23:11:24.943Z,22.82
2023-07-11T23:13:53.205Z,23.08
2023-07-11T23:16:28.855Z,23.05
2023-07-11T23:18:58.194Z,23.04
2023-07-11T23:21:28.672Z,23.05
2023-07-11T23:23:57.075Z,23.06
2023-07-11T23:26:26.769Z,23.01
2023-07-11T23:28:56.197Z,22.94
2023-07-11T23:31:25.658Z,22.96
2023-07-11T23:33:54.237Z,22.90
2023-07-11T23:36:27.471Z,22.82
2023-07-11T23:38:57.023Z,22.84
2023-07-11T23:41:26.211Z,22.81
2023-07-11T23:43:54.607Z,22.81
2023-07-11T23:46:27.260Z,22.84
2023-07-11T23:48:55.908Z,22.68
2023-07-11T23:51:28.778Z,22.76
2023-07-11T23:53:57.425Z,22.78
2023-07-11T23:56:28.298Z,22.81
2023-07-11T23:58:59.801Z,22.59
